logo
Rechercher aéroport 
image banner adimage banner adimage banner ad
image banner ad

DAUG - Ghardaia / Noumerat-Moufdi Zakaria

Situé à Ghardaia, Algeria

ICAO - DAUG, IATA - GHA

Données fournies par Airmate  

Information générale

Coordonnées: N32°22'54" E3°47'58"
Élévation : 1512 feet MSL.
Variation magnétique : 2° East
Évalué:
Voir évaluations:
[VIEW]
Voir autres Aéroports à Ghardaïa Province

Données opérationnelles

Special qualification required
Heure actuelle UTC:
Heure actuelle locale:
Météo
METAR: DAUG 171700Z 17012KT 140V200 CAVOK 41/05 Q1013
TAF: TAF DAUG 171100Z 1712/1812 10010KT CAVOK PROB30 TEMPO 1713/1720 FEW033CB BECMG 1720/1722 VRB02KT BECMG 1808/1812 16015KT PROB40 TEMPO 1808/1812 16015G25KT 3000 DRSA
Voir NOTAMs / SUP AIP / TFR affectant cet aéroport [VIEW]
Fréquences de communication: [VIEW]

Pistes:

Identifiant RWYQFULongueur (ft)Largeur (ft)SurfaceLDA (ft)
18183°7874148ASP
367874148ASP
12122°10171197ASP
30302°10171197ASP

Coordonnées de l'aéroport

Adresse: Ghardaia Algeria

Vue satellite de DAUG